Terminal Aerodrome Forecast
Issued by NWS Albuquerque, NM

Home | Current Version | Previous Version | Text Only | Print | Product List | Glossary On
Versions: 1 2 3 4 5 6 7 8 9 10 11 12
049
FTUS45 KABQ 241125
TAFABQ
TAF
KABQ 241125Z 2412/2512 15007KT P6SM SKC
     FM241800 20008KT P6SM SCT250
     FM242300 15012KT P6SM SCT250
     FM250200 10025G35KT P6SM SCT150
     FM250400 10033G43KT P6SM SCT050
     FM250900 09028G35KT P6SM SCT050=

USA.gov is the U.S. government's official web portal to all federal, state and local government web resources and services.